createdAt,value
2023-05-12T00:21:54.026Z,11.30
2023-05-12T00:27:20.240Z,11.30
2023-05-12T00:32:26.297Z,11.20
2023-05-12T00:37:31.886Z,11.10
2023-05-12T00:42:55.480Z,11.10
2023-05-12T00:48:01.171Z,11.10
2023-05-12T00:53:18.202Z,11.00
2023-05-12T00:59:00.104Z,10.90
2023-05-12T01:04:16.330Z,10.80
2023-05-12T01:09:27.149Z,10.70
2023-05-12T01:14:38.711Z,10.70
2023-05-12T01:19:52.519Z,10.60
2023-05-12T01:24:59.022Z,10.60
2023-05-12T01:30:05.314Z,10.70
2023-05-12T01:35:11.056Z,10.80
2023-05-12T01:40:19.201Z,10.80
2023-05-12T01:45:23.133Z,10.80
2023-05-12T01:50:29.701Z,10.80
2023-05-12T01:55:34.628Z,10.80
2023-05-12T02:00:38.262Z,10.90
2023-05-12T02:05:44.049Z,11.00
2023-05-12T02:10:46.937Z,10.90
2023-05-12T02:15:49.606Z,10.80
2023-05-12T02:20:53.198Z,10.70
2023-05-12T02:25:55.991Z,10.50
2023-05-12T02:30:58.825Z,10.40
2023-05-12T02:36:08.413Z,10.20
2023-05-12T02:41:13.044Z,10.20
2023-05-12T02:46:23.621Z,10.10
2023-05-12T02:51:28.859Z,10.00
2023-05-12T02:56:34.058Z,9.90
2023-05-12T03:01:40.224Z,9.80
2023-05-12T03:06:49.315Z,9.90
2023-05-12T03:11:55.250Z,9.80
2023-05-12T03:17:11.700Z,9.80
2023-05-12T03:22:23.941Z,9.70
2023-05-12T03:28:22.278Z,9.60
2023-05-12T03:33:26.579Z,9.50
2023-05-12T03:38:32.830Z,9.50
2023-05-12T03:43:38.251Z,9.70
2023-05-12T03:48:46.516Z,9.70
2023-05-12T03:53:54.432Z,9.80
2023-05-12T03:59:04.567Z,9.80
2023-05-12T04:04:07.523Z,9.80
2023-05-12T04:09:16.721Z,9.80
2023-05-12T04:14:31.850Z,9.70
2023-05-12T04:19:43.183Z,9.50
2023-05-12T04:24:47.779Z,9.50
2023-05-12T04:29:50.775Z,9.50
2023-05-12T04:34:56.253Z,9.50
2023-05-12T04:39:59.802Z,9.50
2023-05-12T04:45:03.321Z,9.50
2023-05-12T04:50:19.729Z,9.40
2023-05-12T04:55:24.152Z,9.40
2023-05-12T05:05:50.898Z,9.20
2023-05-12T05:10:56.016Z,9.30
2023-05-12T05:16:01.361Z,9.40
2023-05-12T05:21:09.674Z,9.50
2023-05-12T05:26:20.415Z,9.70
2023-05-12T05:31:30.480Z,9.90
2023-05-12T05:36:48.528Z,10.10
2023-05-12T05:42:07.066Z,10.20
2023-05-12T05:47:19.980Z,10.30
2023-05-12T05:52:24.788Z,10.40
2023-05-12T05:57:45.622Z,10.40
2023-05-12T06:02:51.399Z,10.40
2023-05-12T06:07:56.615Z,10.50
2023-05-12T06:13:01.051Z,10.90
2023-05-12T06:18:03.488Z,11.40
2023-05-12T06:23:07.585Z,11.80
2023-05-12T06:28:10.973Z,12.30
2023-05-12T06:33:15.513Z,12.40
2023-05-12T06:38:17.875Z,12.40
2023-05-12T06:43:20.748Z,12.90
2023-05-12T06:48:24.003Z,12.80
2023-05-12T06:53:26.473Z,12.90
2023-05-12T06:58:30.198Z,13.40
2023-05-12T07:03:33.705Z,13.20
2023-05-12T07:08:37.082Z,12.90
2023-05-12T07:13:40.056Z,12.80
2023-05-12T07:18:44.966Z,12.90
2023-05-12T07:23:47.378Z,13.10
2023-05-12T07:28:50.947Z,13.30
2023-05-12T07:34:09.973Z,13.30
2023-05-12T07:39:15.992Z,13.30
2023-05-12T07:44:20.132Z,13.40
2023-05-12T07:49:30.608Z,13.50
2023-05-12T07:54:56.647Z,13.60
2023-05-12T08:00:01.026Z,13.40
2023-05-12T08:05:09.489Z,13.40
2023-05-12T08:15:54.090Z,13.60
2023-05-12T08:26:36.810Z,14.40
2023-05-12T08:32:15.703Z,14.60
2023-05-12T08:42:53.993Z,14.60
2023-05-12T08:48:16.224Z,14.50
2023-05-12T08:53:42.771Z,14.50
2023-05-12T08:59:21.956Z,14.40
2023-05-12T09:04:26.725Z,14.40
2023-05-12T09:09:32.845Z,14.60
2023-05-12T09:14:36.956Z,14.70
2023-05-12T09:19:39.234Z,15.20
2023-05-12T09:24:45.305Z,15.70
2023-05-12T09:29:59.559Z,16.20
2023-05-12T09:35:05.646Z,15.80
2023-05-12T09:40:11.583Z,15.90
2023-05-12T09:45:22.252Z,15.70
2023-05-12T09:51:04.146Z,15.50
2023-05-12T09:56:32.227Z,15.70
2023-05-12T10:07:27.942Z,15.80
2023-05-12T10:12:52.060Z,15.40
2023-05-12T10:18:08.347Z,15.80
2023-05-12T10:23:12.703Z,16.00
2023-05-12T10:28:22.246Z,15.60
2023-05-12T10:33:30.265Z,15.40
2023-05-12T10:38:38.086Z,15.40
2023-05-12T10:43:44.720Z,16.30
2023-05-12T10:54:45.085Z,15.60
2023-05-12T11:00:20.648Z,15.70
2023-05-12T11:05:42.508Z,15.80
2023-05-12T11:10:51.322Z,16.40
2023-05-12T11:16:04.723Z,16.00
2023-05-12T11:21:14.423Z,15.90
2023-05-12T11:26:23.248Z,16.60
2023-05-12T11:31:29.867Z,16.80
2023-05-12T11:36:42.588Z,16.60
2023-05-12T11:47:06.974Z,16.80
2023-05-12T11:52:11.913Z,16.80
2023-05-12T11:57:33.019Z,17.20
2023-05-12T12:02:44.468Z,17.50
2023-05-12T12:08:00.502Z,17.90
2023-05-12T12:13:07.697Z,17.70
2023-05-12T12:18:33.656Z,18.20
2023-05-12T12:23:47.691Z,18.10
2023-05-12T12:28:53.529Z,17.20
2023-05-12T12:34:00.972Z,17.30
2023-05-12T12:39:34.876Z,17.40
2023-05-12T12:44:51.496Z,17.80
2023-05-12T12:49:55.544Z,18.20
2023-05-12T12:54:58.179Z,18.70
2023-05-12T13:00:02.568Z,17.70
2023-05-12T13:05:08.370Z,17.40
2023-05-12T13:10:12.441Z,17.90
2023-05-12T13:15:14.709Z,18.10
2023-05-12T13:20:17.544Z,17.80
2023-05-12T13:25:20.001Z,18.40
2023-05-12T13:30:29.158Z,18.50
2023-05-12T13:41:30.139Z,17.90
2023-05-12T13:46:41.812Z,18.30
2023-05-12T13:51:44.046Z,18.20
2023-05-12T13:56:47.695Z,17.80
2023-05-12T14:01:50.260Z,17.70
2023-05-12T14:07:01.913Z,17.60
2023-05-12T14:17:55.371Z,17.50
2023-05-12T14:22:58.831Z,17.50
2023-05-12T14:28:11.903Z,17.40
2023-05-12T14:33:27.021Z,16.90
2023-05-12T14:38:56.903Z,16.70
2023-05-12T14:44:24.800Z,16.60
2023-05-12T14:49:32.503Z,16.10
2023-05-12T14:54:34.990Z,15.60
2023-05-12T14:59:38.057Z,15.10
2023-05-12T15:04:43.444Z,14.80
2023-05-12T15:10:07.498Z,14.60
2023-05-12T15:15:25.982Z,14.50
2023-05-12T15:26:33.070Z,14.50
2023-05-12T15:32:12.244Z,14.50
2023-05-12T15:38:17.411Z,14.50
2023-05-12T15:43:21.909Z,14.70
2023-05-12T16:06:52.103Z,15.10
2023-05-12T16:18:09.083Z,14.70
2023-05-12T16:24:09.001Z,14.80
2023-05-12T16:35:34.387Z,14.70
2023-05-12T16:47:35.715Z,14.60
2023-05-12T16:52:38.671Z,14.60
2023-05-12T16:57:59.749Z,15.30
2023-05-12T17:03:05.079Z,15.10
2023-05-12T17:08:23.619Z,15.60
2023-05-12T17:13:26.007Z,15.70
2023-05-12T17:18:33.022Z,15.30
2023-05-12T17:23:58.266Z,14.90
2023-05-12T17:34:37.257Z,15.30
2023-05-12T17:39:48.019Z,15.30
2023-05-12T17:44:51.682Z,15.60
2023-05-12T17:49:55.084Z,15.90
2023-05-12T17:54:58.803Z,15.50
2023-05-12T18:00:11.401Z,15.20
2023-05-12T18:05:20.372Z,14.70
2023-05-12T18:10:31.005Z,14.40
2023-05-12T18:15:37.928Z,14.30
2023-05-12T18:20:57.330Z,14.10
2023-05-12T18:26:13.645Z,13.90
2023-05-12T18:31:29.170Z,14.00
2023-05-12T18:36:36.120Z,14.00
2023-05-12T18:41:39.911Z,13.90
2023-05-12T18:46:42.500Z,13.80
2023-05-12T18:51:44.780Z,13.60
2023-05-12T18:56:58.182Z,13.30
2023-05-12T19:02:01.211Z,13.20
2023-05-12T19:07:20.796Z,13.00
2023-05-12T19:12:29.593Z,13.00
2023-05-12T19:17:39.090Z,12.90
2023-05-12T19:24:02.620Z,12.90
2023-05-12T19:35:41.876Z,12.90
2023-05-12T19:41:53.307Z,12.90
2023-05-12T19:47:48.144Z,12.90
2023-05-12T19:52:56.153Z,13.00
2023-05-12T19:59:26.217Z,13.00
2023-05-12T20:04:41.833Z,13.00
2023-05-12T20:09:50.368Z,13.00
2023-05-12T20:20:27.318Z,13.00
2023-05-12T20:25:33.460Z,12.90
2023-05-12T20:30:57.945Z,12.90
2023-05-12T20:41:56.973Z,12.70
2023-05-12T20:47:02.620Z,12.70
2023-05-12T20:52:06.591Z,12.80
2023-05-12T20:57:10.555Z,12.80
2023-05-12T21:02:14.009Z,12.80
2023-05-12T21:07:17.120Z,12.80
2023-05-12T21:12:30.446Z,12.90
2023-05-12T21:17:35.459Z,12.90
2023-05-12T21:23:06.227Z,13.00
2023-05-12T21:28:12.863Z,12.90
2023-05-12T21:33:19.412Z,13.00
2023-05-12T21:38:22.246Z,13.00
2023-05-12T21:43:24.667Z,13.00
2023-05-12T21:48:26.942Z,13.00
2023-05-12T21:53:29.689Z,13.00
2023-05-12T21:58:39.349Z,13.00
2023-05-12T22:03:42.192Z,13.00
2023-05-12T22:08:45.597Z,13.00
2023-05-12T22:13:48.431Z,13.10
2023-05-12T22:18:51.039Z,13.10
2023-05-12T22:23:53.766Z,13.10
2023-05-12T22:28:56.077Z,13.10
2023-05-12T22:33:58.501Z,13.10
2023-05-12T22:39:01.152Z,13.10
2023-05-12T22:44:03.676Z,13.10
2023-05-12T22:49:08.048Z,13.20
2023-05-12T22:54:10.420Z,13.20
2023-05-12T22:59:12.805Z,13.20
2023-05-12T23:04:44.625Z,13.20
2023-05-12T23:09:48.085Z,13.20
2023-05-12T23:14:53.585Z,13.20
2023-05-12T23:19:58.227Z,13.30
2023-05-12T23:25:00.955Z,13.30
2023-05-12T23:30:07.431Z,13.30
2023-05-12T23:35:10.137Z,13.20
2023-05-12T23:40:13.913Z,13.20
2023-05-12T23:45:16.359Z,13.20
2023-05-12T23:50:51.292Z,13.20
2023-05-12T23:55:59.950Z,13.20
